Hirtshals, Denmark
Current Conditions -  °F | °C
As of 12:20 AM on Sunday 21 Dec 2014 (Local Time) from EKYT Reporting Station
Few Clouds Few Clouds  
Wind Chill: 35°   Ceiling: Unl
Heat Index: 41°   Visibility: 6mi
Dew Point: 32°   Wind: 10mph
Humidity: 70%   Direction: 300°WNW
Pressure: 29.8"   Gusts: NA
Location:  57.59°N, 9.96°E
Report Text: EKYT 202320Z 30009KT 9999 FEW025 05/00 Q1009
Loading
Personal Weather Stations






























Interactive Weather Map New forecast layout! Learn more

10-Day Weather Forecast

Advertisements
Track Severe Weather on mobile